GRZ508 Details

Departure: Wiley Post-Will Rogers Memorial Airport (PABR)
Arrival: Fairbanks International Airport (PAFA)
Route: BRW J515 BTT FAI


Current Weather Information
PABR 260153Z 10008KT 10SM OVC011 M09/M11 A3035 RMK AO2 SLP279 T10941111
PAFA 260153Z 03010KT 10SM SCT075 BKN090 09/M09 A3014 RMK AO2 SLP214 VIRGA T00891089 VISNO NE